Time;durP1;ratioP1;P1;durP2;ratioP2;P2;SDS_P1;SDS_P2;PMS_P1;PMS_P2;Temp;Humidity;BMP_temperature;BMP_pressure;BME280_temperature;BME280_humidity;BME280_pressure;Samples;Min_cycle;Max_cycle;Signal;HPM_P1;HPM_P2
2022/01/27 00:00:57;;;;;;;39.97;26.47;;;;;;;3.73;84.66;102732.25;5231485;28;20034;-72
2022/01/27 00:03:33;;;;;;;39.63;26.00;;;;;;;3.70;84.97;102722.75;5213670;28;20037;-72
2022/01/27 00:06:09;;;;;;;41.23;26.43;;;;;;;3.59;85.78;102716.72;5213602;28;20492;-72
2022/01/27 00:08:53;;;;;;;39.63;27.33;;;;;;;3.59;85.44;102720.19;5230368;28;20033;-73
2022/01/27 00:11:25;;;;;;;38.63;26.17;;;;;;;3.58;86.07;102717.59;5213317;28;20084;-72
2022/01/27 00:14:00;;;;;;;41.53;26.97;;;;;;;3.58;85.38;102702.03;5231699;28;20295;-72
2022/01/27 00:16:38;;;;;;;36.53;24.87;;;;;;;3.63;85.15;102689.94;5231440;28;20025;-72
2022/01/27 00:19:11;;;;;;;37.40;25.33;;;;;;;3.67;85.13;102694.25;5230900;28;20025;-72
2022/01/27 00:21:42;;;;;;;41.80;26.97;;;;;;;3.71;85.15;102666.59;5231744;28;20021;-74
2022/01/27 00:24:13;;;;;;;37.63;25.47;;;;;;;3.60;85.79;102670.06;5229844;28;20103;-75
2022/01/27 00:26:45;;;;;;;40.10;26.93;;;;;;;3.72;85.31;102678.69;5213398;28;20037;-74
2022/01/27 00:29:16;;;;;;;36.97;26.73;;;;;;;3.75;85.14;102673.53;5230435;28;20033;-74
2022/01/27 00:31:47;;;;;;;39.20;25.27;;;;;;;3.68;85.58;102664.03;5231498;28;20084;-72
2022/01/27 00:34:18;;;;;;;41.47;26.97;;;;;;;3.70;85.02;102678.69;5231038;28;20104;-72
2022/01/27 00:36:50;;;;;;;37.50;25.77;;;;;;;3.67;85.44;102677.81;5230928;28;20067;-72
2022/01/27 00:39:21;;;;;;;40.57;25.33;;;;;;;3.72;84.55;102676.97;5230227;28;20512;-72
2022/01/27 00:41:52;;;;;;;36.47;25.03;;;;;;;3.70;85.05;102676.09;5231020;28;20041;-72
2022/01/27 00:44:23;;;;;;;36.80;24.07;;;;;;;3.65;85.83;102680.44;5231057;28;20037;-72
2022/01/27 00:46:55;;;;;;;41.73;26.67;;;;;;;3.73;85.40;102677.84;5212246;28;20195;-72
2022/01/27 00:49:26;;;;;;;39.87;26.57;;;;;;;3.69;85.29;102671.78;5231044;28;20036;-72
2022/01/27 00:52:00;;;;;;;39.90;25.47;;;;;;;3.73;85.42;102670.06;5230752;28;20403;-72
2022/01/27 00:54:31;;;;;;;38.40;25.70;;;;;;;3.72;85.27;102650.19;5229670;28;20037;-72
2022/01/27 00:57:16;;;;;;;41.77;25.60;;;;;;;3.77;84.87;102653.63;5213114;28;20033;-72
2022/01/27 01:00:02;;;;;;;39.42;26.50;;;;;;;3.78;84.74;102641.53;5230688;28;20124;-72
2022/01/27 01:05:33;;;;;;;37.45;23.08;;;;;;;3.73;84.68;102628.59;5230827;28;20053;-72
2022/01/27 01:08:56;;;;;;;38.47;25.80;;;;;;;3.73;85.26;102641.56;5211706;28;20443;-72
2022/01/27 01:16:51;;;;;;;40.20;25.27;;;;;;;3.76;85.30;102644.13;5230179;28;20412;-72
2022/01/27 01:33:20;;;;;;;34.40;21.80;;;;;;;3.90;84.68;102619.91;5230133;28;20925;-72
2022/01/27 01:36:01;;;;;;;34.90;22.27;;;;;;;3.83;85.25;102612.16;5212092;28;20136;-72
2022/01/27 01:38:32;;;;;;;38.63;25.47;;;;;;;3.81;85.44;102613.88;5228786;28;20021;-72
2022/01/27 01:41:03;;;;;;;36.10;24.57;;;;;;;3.79;85.34;102607.84;5229739;28;20684;-72
2022/01/27 01:43:35;;;;;;;36.60;23.37;;;;;;;3.74;85.26;102578.47;5229962;28;20013;-72
2022/01/27 01:46:06;;;;;;;36.23;23.60;;;;;;;3.86;85.02;102583.63;5207994;28;20022;-72
2022/01/27 01:48:37;;;;;;;32.40;22.67;;;;;;;3.93;84.60;102588.78;5211180;28;20448;-72
2022/01/27 01:51:11;;;;;;;33.90;23.63;;;;;;;3.79;84.87;102550.81;5229441;28;20030;-72
2022/01/27 01:53:42;;;;;;;34.80;24.53;;;;;;;3.75;85.90;102562.09;5210896;28;20455;-74
2022/01/27 01:56:13;;;;;;;34.00;23.53;;;;;;;3.86;85.26;102575.84;5212144;28;20096;-74
2022/01/27 01:58:45;;;;;;;36.67;24.03;;;;;;;3.87;85.77;102584.50;5211571;28;20463;-74
2022/01/27 02:01:17;;;;;;;34.00;23.60;;;;;;;3.79;85.16;102568.97;5229211;28;20046;-75
2022/01/27 02:03:49;;;;;;;36.13;23.57;;;;;;;3.81;85.26;102559.44;5211578;28;20026;-75
2022/01/27 02:06:31;;;;;;;34.80;23.80;;;;;;;3.83;85.55;102578.47;5229397;28;20029;-72
2022/01/27 02:20:37;;;;;;;31.60;23.23;;;;;;;4.00;85.01;102538.63;5184856;28;20418;-72
2022/01/27 02:23:10;;;;;;;35.80;24.42;;;;;;;3.89;85.29;102519.69;5184777;28;20034;-72
2022/01/27 02:25:41;;;;;;;35.40;23.20;;;;;;;3.94;85.52;102528.31;5211104;28;20056;-72
2022/01/27 02:28:13;;;;;;;37.17;22.63;;;;;;;3.94;85.08;102531.78;5211443;28;20512;-72
2022/01/27 02:30:46;;;;;;;33.40;23.03;;;;;;;3.93;85.55;102542.13;5211038;28;20026;-72
2022/01/27 02:33:29;;;;;;;35.27;22.77;;;;;;;3.99;86.17;102539.50;5229388;28;20536;-72
2022/01/27 02:36:03;;;;;;;35.73;22.60;;;;;;;3.93;85.55;102537.81;5233320;28;20208;-72
2022/01/27 02:38:34;;;;;;;32.58;22.08;;;;;;;3.94;85.65;102541.25;5210373;28;20124;-72
2022/01/27 02:41:07;;;;;;;30.00;21.10;;;;;;;3.94;86.16;102549.03;5228636;28;20092;-72
2022/01/27 02:43:38;;;;;;;34.43;22.13;;;;;;;3.93;86.34;102542.13;5229087;28;20033;-72
2022/01/27 02:46:17;;;;;;;30.17;22.67;;;;;;;4.02;85.83;102525.66;5229139;28;20060;-73
2022/01/27 02:48:48;;;;;;;32.30;22.23;;;;;;;3.96;86.14;102529.16;5229404;28;20447;-72
2022/01/27 02:51:20;;;;;;;36.63;22.50;;;;;;;4.06;85.94;102527.38;5229048;28;20030;-72
2022/01/27 02:53:51;;;;;;;33.73;21.57;;;;;;;4.02;86.21;102526.53;5227762;28;20064;-72
2022/01/27 02:56:22;;;;;;;33.97;23.27;;;;;;;4.01;86.28;102521.34;5228907;28;20805;-72
2022/01/27 02:58:53;;;;;;;31.20;22.50;;;;;;;3.97;86.71;102502.34;5228626;28;20506;-72
2022/01/27 03:01:25;;;;;;;35.60;21.90;;;;;;;3.96;86.69;102498.91;5228930;28;20054;-72
2022/01/27 03:03:56;;;;;;;34.07;22.80;;;;;;;4.05;86.10;102497.97;5228810;28;20514;-72
2022/01/27 03:06:27;;;;;;;35.50;22.10;;;;;;;4.08;85.72;102490.22;5228887;28;20423;-72
2022/01/27 03:08:58;;;;;;;36.27;23.10;;;;;;;4.06;86.40;102476.38;5227806;28;20036;-72
2022/01/27 03:11:44;;;;;;;33.53;22.57;;;;;;;3.98;86.31;102460.88;5228431;28;20028;-71
2022/01/27 03:14:18;;;;;;;33.33;22.20;;;;;;;4.04;86.29;102472.94;5228968;28;20033;-72
2022/01/27 03:16:54;;;;;;;35.00;21.42;;;;;;;4.09;86.50;102496.25;5211002;28;20754;-72
2022/01/27 03:19:27;;;;;;;33.00;21.00;;;;;;;3.97;87.20;102490.25;5228752;28;20053;-72
2022/01/27 03:22:01;;;;;;;35.90;23.03;;;;;;;4.02;86.87;102481.59;5206692;28;20022;-72
2022/01/27 03:24:32;;;;;;;34.58;22.60;;;;;;;4.04;86.84;102472.06;5224532;28;20025;-72
2022/01/27 03:27:17;;;;;;;33.10;21.97;;;;;;;4.07;86.47;102477.22;5228761;28;20484;-72
2022/01/27 03:29:48;;;;;;;37.58;22.40;;;;;;;3.96;87.06;102453.97;5228620;28;20075;-72
2022/01/27 03:32:20;;;;;;;32.53;20.83;;;;;;;4.07;87.05;102456.47;5210569;28;20357;-72
2022/01/27 03:34:52;;;;;;;35.10;21.53;;;;;;;4.07;86.71;102448.72;5228645;28;20034;-72
2022/01/27 03:37:23;;;;;;;37.27;23.13;;;;;;;4.09;86.35;102447.84;5227230;28;20063;-72
2022/01/27 03:39:55;;;;;;;34.30;21.47;;;;;;;3.97;87.45;102442.72;5228678;28;20146;-72
2022/01/27 03:42:27;;;;;;;36.97;21.77;;;;;;;3.97;87.61;102442.72;5229698;28;20083;-72
2022/01/27 03:44:58;;;;;;;34.70;20.27;;;;;;;3.98;87.87;102470.38;5232351;28;20471;-72
2022/01/27 03:47:29;;;;;;;34.03;21.50;;;;;;;3.92;88.09;102462.63;5214212;28;20091;-72
2022/01/27 03:50:01;;;;;;;33.30;20.70;;;;;;;3.83;88.39;102448.88;5231893;28;20021;-71
2022/01/27 03:52:32;;;;;;;35.07;21.60;;;;;;;3.78;88.62;102444.56;5213552;28;20068;-72
2022/01/27 03:55:04;;;;;;;31.50;21.50;;;;;;;3.92;88.54;102465.22;5231584;28;20095;-72
2022/01/27 03:57:35;;;;;;;32.60;21.23;;;;;;;3.85;89.39;102456.63;5231971;28;20029;-72
2022/01/27 04:00:08;;;;;;;36.57;22.93;;;;;;;3.90;89.14;102460.06;5212093;28;20654;-72
2022/01/27 04:02:51;;;;;;;32.97;20.70;;;;;;;3.92;89.25;102441.91;5231218;28;20053;-74
2022/01/27 04:05:22;;;;;;;34.77;21.93;;;;;;;3.95;89.03;102434.97;5214401;28;20061;-72
2022/01/27 04:07:57;;;;;;;35.50;19.70;;;;;;;3.95;89.17;102436.69;5231983;28;20136;-72
2022/01/27 04:10:28;;;;;;;33.55;21.30;;;;;;;3.93;89.24;102421.16;5232245;28;20029;-72
2022/01/27 04:13:00;;;;;;;32.13;21.90;;;;;;;3.99;89.20;102423.72;5232471;28;20025;-72
2022/01/27 04:15:33;;;;;;;38.73;21.03;;;;;;;3.96;89.57;102417.69;5231793;28;20532;-72
2022/01/27 04:18:04;;;;;;;28.83;18.33;;;;;;;4.01;89.25;102404.69;5231123;28;20107;-71
2022/01/27 04:20:38;;;;;;;32.90;20.60;;;;;;;3.97;89.62;102404.72;5231720;28;20018;-72
2022/01/27 04:23:09;;;;;;;33.23;21.83;;;;;;;4.02;89.34;102404.66;5230382;28;20887;-72
2022/01/27 04:25:41;;;;;;;31.50;20.83;;;;;;;3.92;89.87;102414.25;5231023;28;20025;-72
2022/01/27 04:28:16;;;;;;;29.77;19.40;;;;;;;3.99;89.65;102412.47;5232069;28;20063;-73
2022/01/27 04:30:48;;;;;;;31.03;19.33;;;;;;;3.91;89.85;102396.13;5236118;28;20028;-72
2022/01/27 04:33:24;;;;;;;32.93;21.07;;;;;;;3.92;90.02;102400.41;5231044;28;20018;-72
2022/01/27 04:35:59;;;;;;;32.77;19.20;;;;;;;3.90;90.27;102413.41;5231753;28;20021;-72
2022/01/27 04:41:13;;;;;;;37.80;20.60;;;;;;;3.98;90.29;102400.38;5231554;28;20034;-72
2022/01/27 04:43:55;;;;;;;32.13;19.43;;;;;;;3.98;90.21;102390.00;5231055;28;20079;-72
2022/01/27 04:46:36;;;;;;;29.93;20.40;;;;;;;3.88;90.33;102381.44;5230692;28;20033;-72
2022/01/27 04:49:09;;;;;;;36.37;21.60;;;;;;;3.93;90.27;102409.91;5230939;28;20408;-72
2022/01/27 04:51:41;;;;;;;32.77;21.83;;;;;;;3.87;90.76;102396.13;5230710;28;20043;-72
2022/01/27 04:57:12;;;;;;;33.23;21.37;;;;;;;3.86;90.58;102390.94;5203211;28;20090;-72
2022/01/27 04:59:45;;;;;;;31.93;19.63;;;;;;;3.87;91.21;102388.34;5212496;28;20459;-72
2022/01/27 05:05:23;;;;;;;32.63;20.17;;;;;;;3.90;90.84;102373.63;5186605;28;20478;-72
2022/01/27 05:07:58;;;;;;;36.30;20.77;;;;;;;3.86;91.17;102365.03;5211168;28;20073;-72
2022/01/27 05:10:33;;;;;;;31.63;20.75;;;;;;;3.87;90.77;102361.56;5230593;28;20021;-72
2022/01/27 05:13:12;;;;;;;33.57;20.23;;;;;;;3.83;90.86;102355.56;5230310;28;20029;-72
2022/01/27 05:15:45;;;;;;;34.20;20.57;;;;;;;3.79;91.59;102364.19;5230956;28;20029;-72
2022/01/27 05:18:16;;;;;;;36.00;20.50;;;;;;;3.71;91.74;102348.72;5229914;28;20026;-72
2022/01/27 05:20:48;;;;;;;30.53;19.57;;;;;;;3.82;91.67;102361.59;5212741;28;20030;-72
2022/01/27 05:23:19;;;;;;;31.67;19.43;;;;;;;3.76;92.07;102359.03;5211182;28;20480;-72
2022/01/27 05:25:50;;;;;;;31.40;20.53;;;;;;;3.69;92.17;102329.72;5230364;28;20358;-72
2022/01/27 05:28:22;;;;;;;35.03;20.57;;;;;;;3.83;92.05;102352.97;5212264;28;20519;-72
2022/01/27 05:30:53;;;;;;;35.20;19.83;;;;;;;3.74;92.48;102358.19;5212043;28;20061;-72
2022/01/27 05:33:24;;;;;;;32.97;18.93;;;;;;;3.82;92.33;102332.25;5208147;28;20010;-71
2022/01/27 05:35:56;;;;;;;36.37;21.10;;;;;;;3.78;92.13;102313.25;5222409;28;20035;-72
2022/01/27 05:38:27;;;;;;;32.87;20.33;;;;;;;3.75;92.55;102311.53;5211412;28;20021;-72
2022/01/27 05:40:58;;;;;;;35.07;20.20;;;;;;;3.90;91.82;102314.88;5230072;28;20033;-72
2022/01/27 05:43:30;;;;;;;30.53;19.87;;;;;;;3.94;91.71;102324.38;5211881;28;20060;-74
2022/01/27 05:46:02;;;;;;;36.67;20.97;;;;;;;3.90;91.85;102326.97;5213082;28;20034;-74
2022/01/27 05:48:33;;;;;;;36.37;22.03;;;;;;;3.97;91.62;102326.06;5229575;28;20417;-74
2022/01/27 05:51:04;;;;;;;32.23;20.67;;;;;;;3.91;92.48;102332.16;5229966;28;20527;-72
2022/01/27 05:53:37;;;;;;;34.33;19.47;;;;;;;3.87;92.45;102312.31;5210614;28;20021;-72
2022/01/27 05:56:08;;;;;;;37.70;22.93;;;;;;;3.99;92.32;102334.69;5230255;28;20060;-72
2022/01/27 05:58:39;;;;;;;37.03;22.13;;;;;;;4.09;91.06;102320.78;5206998;28;20180;-72
2022/01/27 06:01:11;;;;;;;33.07;20.10;;;;;;;3.94;92.51;102321.78;5216530;28;20116;-72
2022/01/27 06:03:43;;;;;;;31.67;20.63;;;;;;;3.95;92.72;102317.44;5226099;28;20021;-72
2022/01/27 06:06:14;;;;;;;31.50;20.73;;;;;;;3.97;92.49;102311.38;5228352;28;20461;-72
2022/01/27 06:08:45;;;;;;;38.33;21.90;;;;;;;4.06;92.32;102323.41;5228079;28;20029;-72
2022/01/27 06:11:17;;;;;;;34.03;20.70;;;;;;;4.04;92.61;102317.38;5229770;28;20087;-72
2022/01/27 06:13:48;;;;;;;34.83;20.70;;;;;;;3.94;92.89;102297.59;5233277;28;20435;-72
2022/01/27 06:16:20;;;;;;;33.50;20.33;;;;;;;3.99;93.67;102299.28;5228708;28;20068;-72
2022/01/27 06:18:51;;;;;;;36.33;21.20;;;;;;;4.05;94.06;102308.72;5211074;28;20032;-72
2022/01/27 06:21:23;;;;;;;40.13;23.33;;;;;;;4.13;94.07;102315.56;5229140;28;20027;-72
2022/01/27 06:23:54;;;;;;;32.70;21.83;;;;;;;3.98;94.35;102294.94;5228501;28;20069;-72
2022/01/27 06:26:27;;;;;;;35.17;20.63;;;;;;;4.15;94.33;102304.31;5209976;28;20130;-72
2022/01/27 06:28:58;;;;;;;34.50;20.37;;;;;;;4.19;95.06;102307.75;5219997;28;20115;-71
2022/01/27 06:31:30;;;;;;;35.57;21.43;;;;;;;4.14;95.65;102293.97;5227320;28;20550;-71
2022/01/27 06:34:01;;;;;;;34.50;21.67;;;;;;;4.22;95.31;102307.72;5227542;28;20408;-71
2022/01/27 06:36:32;;;;;;;35.97;22.43;;;;;;;4.18;95.83;102308.59;5227039;28;20560;-71
2022/01/27 06:39:03;;;;;;;36.47;21.33;;;;;;;4.18;95.86;102308.59;5226974;28;20113;-71
2022/01/27 06:41:35;;;;;;;41.27;23.77;;;;;;;4.18;96.36;102316.38;5227129;28;20034;-71
2022/01/27 06:44:06;;;;;;;36.90;20.43;;;;;;;4.20;96.13;102304.28;5211808;28;20404;-71
2022/01/27 06:46:37;;;;;;;42.87;24.57;;;;;;;4.27;96.13;102295.56;5220319;28;20124;-71
2022/01/27 06:49:14;;;;;;;36.07;21.70;;;;;;;4.27;96.11;102287.78;5229346;28;20068;-69
2022/01/27 06:51:45;;;;;;;42.50;23.27;;;;;;;4.22;96.35;102284.38;5227488;28;20025;-70
2022/01/27 06:54:17;;;;;;;40.67;22.93;;;;;;;4.22;95.97;102277.44;5224316;28;20507;-71
2022/01/27 06:56:48;;;;;;;39.00;22.80;;;;;;;4.31;95.86;102288.63;5202836;28;20715;-71
2022/01/27 06:59:20;;;;;;;40.90;23.87;;;;;;;4.20;96.67;102291.31;5226499;28;20032;-71
2022/01/27 07:01:51;;;;;;;35.37;22.43;;;;;;;4.29;95.96;102291.22;5223975;28;20053;-72
2022/01/27 07:04:22;;;;;;;40.07;22.87;;;;;;;4.30;95.64;102287.75;5225013;28;20032;-72
2022/01/27 07:06:54;;;;;;;41.53;22.93;;;;;;;4.23;96.61;102275.72;5222857;28;20029;-73
2022/01/27 07:09:25;;;;;;;38.80;23.83;;;;;;;4.27;96.38;102281.72;5225690;28;20068;-73
2022/01/27 07:11:56;;;;;;;37.17;22.53;;;;;;;4.30;96.35;102290.34;5227014;28;20068;-73
2022/01/27 07:14:30;;;;;;;37.20;22.77;;;;;;;4.31;96.38;102289.44;5208694;28;20190;-72
2022/01/27 07:17:03;;;;;;;39.05;22.52;;;;;;;4.36;96.21;102294.63;5206977;28;20767;-73
2022/01/27 07:19:35;;;;;;;40.17;23.27;;;;;;;4.27;96.71;102280.00;5220002;28;20048;-72
2022/01/27 07:22:06;;;;;;;41.20;23.47;;;;;;;4.32;96.44;102286.00;5191946;28;20136;-73
2022/01/27 07:24:37;;;;;;;38.30;23.70;;;;;;;4.27;96.48;102282.59;5222546;28;20377;-74
2022/01/27 07:27:09;;;;;;;40.20;24.27;;;;;;;4.32;96.44;102291.19;5227429;28;20017;-74
2022/01/27 07:29:40;;;;;;;43.17;22.90;;;;;;;4.33;96.44;102292.88;5228443;28;20048;-75
2022/01/27 07:32:12;;;;;;;40.67;23.03;;;;;;;4.40;96.23;102298.88;5210665;28;20753;-75
2022/01/27 07:34:43;;;;;;;40.67;24.97;;;;;;;4.39;95.89;102291.09;5212933;28;20034;-75
2022/01/27 07:37:15;;;;;;;41.53;23.93;;;;;;;4.45;95.92;102302.28;5229653;28;20033;-75
2022/01/27 07:39:46;;;;;;;39.67;24.07;;;;;;;4.46;95.60;102293.63;5227475;28;20052;-75
2022/01/27 07:42:17;;;;;;;39.13;23.67;;;;;;;4.43;96.11;102308.38;5230782;28;20021;-75
2022/01/27 07:44:49;;;;;;;37.23;22.40;;;;;;;4.42;96.22;102307.50;5231081;28;20025;-75
2022/01/27 07:47:20;;;;;;;37.33;22.53;;;;;;;4.39;96.34;102286.78;5229949;28;20025;-74
2022/01/27 07:49:51;;;;;;;41.83;23.47;;;;;;;4.44;96.36;102285.00;5227178;28;20597;-75
2022/01/27 07:52:23;;;;;;;40.70;23.67;;;;;;;4.53;96.04;102289.25;5211124;28;20017;-74
2022/01/27 07:54:54;;;;;;;43.07;24.80;;;;;;;4.50;97.05;102299.66;5227379;28;20863;-74
2022/01/27 07:57:25;;;;;;;43.27;24.40;;;;;;;4.65;97.75;102298.63;5231117;28;20049;-74
2022/01/27 07:59:56;;;;;;;43.70;25.97;;;;;;;4.51;99.26;102297.91;5223293;28;20979;-73
2022/01/27 08:02:28;;;;;;;40.73;23.70;;;;;;;4.52;100.00;102303.06;5212766;28;20111;-73
2022/01/27 08:04:59;;;;;;;43.80;25.43;;;;;;;4.47;100.00;102308.31;5213959;28;20503;-73
2022/01/27 08:07:31;;;;;;;42.60;25.17;;;;;;;4.48;100.00;102312.66;5232057;28;20760;-73
2022/01/27 08:10:03;;;;;;;49.23;27.13;;;;;;;4.46;100.00;102308.34;5223305;28;20036;-73
2022/01/27 08:12:42;;;;;;;42.93;24.33;;;;;;;4.53;100.00;102309.13;5212589;28;20071;-73
2022/01/27 08:15:15;;;;;;;46.70;27.33;;;;;;;4.44;100.00;102316.13;5230674;28;20096;-76
2022/01/27 08:17:46;;;;;;;45.87;25.83;;;;;;;4.39;100.00;102311.88;5213065;28;20026;-75
2022/01/27 08:20:17;;;;;;;41.87;25.43;;;;;;;4.39;100.00;102302.34;5210389;28;20120;-73
2022/01/27 08:22:51;;;;;;;48.53;26.60;;;;;;;4.48;100.00;102309.19;5216670;28;20511;-73
2022/01/27 08:25:23;;;;;;;46.97;25.47;;;;;;;4.57;100.00;102311.66;5213309;28;20064;-75
2022/01/27 08:27:58;;;;;;;47.73;27.23;;;;;;;4.40;100.00;102282.47;5230489;28;20086;-75
2022/01/27 08:30:40;;;;;;;51.85;29.42;;;;;;;4.54;100.00;102300.50;5220938;28;20053;-75
2022/01/27 08:33:17;;;;;;;52.07;29.60;;;;;;;4.51;100.00;102303.09;5212251;28;20021;-75
2022/01/27 08:35:48;;;;;;;52.00;29.03;;;;;;;4.48;100.00;102285.84;5230351;28;20336;-75
2022/01/27 08:38:20;;;;;;;52.13;27.80;;;;;;;4.46;100.00;102285.00;5211708;28;20022;-75
2022/01/27 08:40:51;;;;;;;49.97;27.63;;;;;;;4.46;100.00;102296.22;5209529;28;20030;-76
2022/01/27 08:43:23;;;;;;;45.30;26.57;;;;;;;4.59;100.00;102293.50;5230874;28;20014;-76
2022/01/27 08:45:54;;;;;;;50.50;30.00;;;;;;;4.46;100.00;102290.19;5229961;28;20033;-74
2022/01/27 08:48:27;;;;;;;53.13;28.57;;;;;;;4.48;100.00;102296.22;5230584;28;20032;-74
2022/01/27 08:51:00;;;;;;;50.47;29.17;;;;;;;4.59;100.00;102302.13;5211939;28;20045;-74
2022/01/27 08:53:36;;;;;;;52.23;30.70;;;;;;;4.54;100.00;102295.31;5229446;28;20107;-75
2022/01/27 08:56:10;;;;;;;46.00;26.73;;;;;;;4.43;100.00;102282.44;5212985;28;20078;-75
2022/01/27 08:58:41;;;;;;;51.27;29.50;;;;;;;4.54;100.00;102296.13;5227430;28;20490;-75
2022/01/27 09:01:12;;;;;;;47.67;28.10;;;;;;;4.55;100.00;102292.69;5224913;28;20053;-75
2022/01/27 09:03:45;;;;;;;54.07;30.43;;;;;;;4.54;100.00;102288.34;5212569;28;20029;-74
2022/01/27 09:06:19;;;;;;;47.33;28.27;;;;;;;4.60;100.00;102300.41;5228835;28;20021;-75
2022/01/27 09:08:50;;;;;;;48.20;28.27;;;;;;;4.62;100.00;102297.78;5210043;28;20041;-75
2022/01/27 09:11:23;;;;;;;55.00;29.33;;;;;;;4.64;100.00;102293.44;5220826;28;20018;-75
2022/01/27 09:13:55;;;;;;;47.13;28.33;;;;;;;4.62;100.00;102293.47;5230135;28;20033;-75
2022/01/27 09:16:28;;;;;;;43.03;28.10;;;;;;;4.69;100.00;102289.06;5229664;28;20053;-75
2022/01/27 09:19:01;;;;;;;47.10;29.27;;;;;;;4.67;100.00;102280.44;5211949;28;20038;-75
2022/01/27 09:21:42;;;;;;;54.23;30.43;;;;;;;4.80;100.00;102283.75;5222464;28;20033;-75
2022/01/27 09:24:17;;;;;;;47.37;28.83;;;;;;;4.74;100.00;102294.19;5226137;28;20161;-75
2022/01/27 09:29:21;;;;;;;49.13;28.57;;;;;;;4.86;100.00;102295.78;5230087;28;20033;-73
2022/01/27 09:31:52;;;;;;;46.57;27.20;;;;;;;4.80;100.00;102281.16;5226689;28;20052;-73
2022/01/27 09:34:23;;;;;;;49.50;29.87;;;;;;;4.82;100.00;102284.56;5229679;28;20033;-73
2022/01/27 09:36:55;;;;;;;47.17;28.77;;;;;;;4.82;100.00;102282.84;5215387;28;20029;-73
2022/01/27 09:39:26;;;;;;;44.83;28.37;;;;;;;4.87;100.00;102292.31;5228529;28;20031;-73
2022/01/27 09:41:58;;;;;;;41.47;27.00;;;;;;;4.91;100.00;102283.59;5227486;28;20499;-73
2022/01/27 09:44:32;;;;;;;39.83;26.60;;;;;;;4.93;100.00;102281.84;5229186;28;20435;-73
2022/01/27 09:47:06;;;;;;;38.57;26.43;;;;;;;4.93;100.00;102284.44;5229380;28;20029;-73
2022/01/27 09:49:50;;;;;;;46.00;28.27;;;;;;;4.92;100.00;102280.97;5209068;28;20104;-73
2022/01/27 09:52:22;;;;;;;40.47;27.48;;;;;;;4.98;100.00;102295.63;5225678;28;20021;-76
2022/01/27 09:54:53;;;;;;;38.83;26.70;;;;;;;4.98;100.00;102298.22;5210569;28;20361;-75
2022/01/27 09:57:24;;;;;;;38.00;24.50;;;;;;;5.08;100.00;102298.97;5211881;28;20021;-75
2022/01/27 09:59:56;;;;;;;36.57;24.17;;;;;;;4.96;100.00;102294.78;5226464;28;20044;-75
2022/01/27 10:02:27;;;;;;;40.40;24.60;;;;;;;5.08;100.00;102304.16;5223060;28;20041;-75
2022/01/27 10:04:58;;;;;;;35.70;24.27;;;;;;;5.03;100.00;102299.03;5228558;28;20061;-75
2022/01/27 10:07:42;;;;;;;34.70;24.50;;;;;;;5.11;100.00;102316.25;5210099;28;20611;-75
2022/01/27 10:10:15;;;;;;;40.93;25.77;;;;;;;5.05;100.00;102305.06;5220800;28;20477;-75
2022/01/27 10:12:50;;;;;;;35.00;23.97;;;;;;;5.12;100.00;102310.16;5219409;28;20032;-75
2022/01/27 10:15:24;;;;;;;35.37;24.93;;;;;;;5.11;100.00;102303.28;5211484;28;20033;-76
2022/01/27 10:18:16;;;;;;;35.15;22.35;;;;;;;5.14;100.00;102300.63;5228035;28;20037;-76
2022/01/27 10:20:57;;;;;;;37.20;26.10;;;;;;;5.19;100.00;102298.81;5218231;28;20032;-76
2022/01/27 10:23:33;;;;;;;36.40;25.10;;;;;;;5.17;100.00;102310.97;5226143;28;20858;-77
2022/01/27 10:26:14;;;;;;;29.63;22.53;;;;;;;5.20;100.00;102306.59;5227706;28;20044;-76
2022/01/27 10:29:12;;;;;;;29.53;23.10;;;;;;;5.24;100.00;102291.81;5217885;28;20432;-76
2022/01/27 10:31:42;;;;;;;30.83;20.90;;;;;;;5.20;100.00;102288.41;5224437;28;20055;-76
2022/01/27 10:34:15;;;;;;;30.93;23.83;;;;;;;5.20;100.00;102290.16;5228288;28;20684;-76
2022/01/27 10:36:46;;;;;;;31.07;21.57;;;;;;;5.28;100.00;102303.03;5227234;28;20021;-75
2022/01/27 10:39:20;;;;;;;30.07;23.80;;;;;;;5.28;100.00;102296.13;5211127;28;20031;-76
2022/01/27 10:42:07;;;;;;;33.30;24.10;;;;;;;5.26;100.00;102295.28;5220839;28;20028;-75
2022/01/27 10:44:53;;;;;;;31.50;22.50;;;;;;;5.26;100.00;102295.28;5228531;28;20018;-75
2022/01/27 10:47:32;;;;;;;31.00;22.03;;;;;;;5.43;100.00;102296.75;5228457;28;20112;-76
2022/01/27 10:50:06;;;;;;;29.13;22.57;;;;;;;5.30;100.00;102296.09;5207782;28;20028;-76
2022/01/27 10:52:42;;;;;;;;;;;;;;;5.36;100.00;102302.94;5230812;28;20104;-75
2022/01/27 10:55:20;;;;;;;32.23;23.13;;;;;;;5.22;100.00;102288.38;5232473;28;19966;-76
2022/01/27 10:57:51;;;;;;;30.20;22.83;;;;;;;5.13;100.00;102267.75;5214406;28;21042;-76
2022/01/27 11:00:24;;;;;;;28.97;22.47;;;;;;;5.26;100.00;102300.47;5226691;28;20072;-75
2022/01/27 11:03:03;;;;;;;29.80;22.50;;;;;;;5.32;100.00;102297.75;5230021;28;20049;-76
2022/01/27 11:05:43;;;;;;;29.60;23.40;;;;;;;5.28;100.00;102287.44;5214134;28;20111;-77
2022/01/27 11:08:15;;;;;;;26.97;21.47;;;;;;;5.44;100.00;102293.28;5230814;28;20170;-75
2022/01/27 11:10:49;;;;;;;30.10;23.00;;;;;;;5.44;100.00;102299.34;5227005;28;20112;-75
2022/01/27 11:13:23;;;;;;;32.10;21.85;;;;;;;5.45;100.00;102287.19;5228835;28;20025;-74
2022/01/27 11:15:54;;;;;;;29.70;23.40;;;;;;;5.48;100.00;102284.56;5232085;28;20376;-74
2022/01/27 11:18:28;;;;;;;31.33;22.30;;;;;;;5.50;100.00;102281.97;5222081;28;20026;-76
2022/01/27 11:21:06;;;;;;;32.23;24.03;;;;;;;5.56;100.00;102285.31;5228604;28;20393;-77
2022/01/27 11:26:13;;;;;;;;;;;;;;;5.83;100.00;102273.63;5223974;28;20034;-76
2022/01/27 11:28:47;;;;;;;30.07;23.37;;;;;;;5.62;100.00;102258.34;5224632;28;19927;-74
2022/01/27 11:31:39;;;;;;;29.13;21.33;;;;;;;5.70;100.00;102253.03;5223584;28;20025;-73
2022/01/27 11:34:11;;;;;;;30.90;21.97;;;;;;;5.69;100.00;102251.31;5229202;28;20029;-72
2022/01/27 11:37:03;;;;;;;33.87;23.90;;;;;;;5.76;100.00;102252.94;5228175;28;20586;-73
2022/01/27 11:39:50;;;;;;;32.87;24.73;;;;;;;5.75;100.00;102251.22;5228207;28;20077;-73
2022/01/27 11:42:37;;;;;;;32.93;21.77;;;;;;;5.92;100.00;102252.66;5230125;28;20108;-73
2022/01/27 11:45:20;;;;;;;32.30;22.40;;;;;;;5.95;100.00;102247.44;5231078;28;20476;-73
2022/01/27 11:47:57;;;;;;;35.53;23.83;;;;;;;5.90;100.00;102244.06;5232039;28;20025;-77
2022/01/27 11:50:35;;;;;;;32.50;22.93;;;;;;;5.95;100.00;102237.03;5228635;28;20022;-78
2022/01/27 11:53:08;;;;;;;30.80;22.10;;;;;;;5.95;100.00;102251.75;5229248;28;20028;-78
2022/01/27 11:55:44;;;;;;;35.00;22.87;;;;;;;5.98;100.00;102247.38;5231551;28;20045;-77
2022/01/27 11:58:18;;;;;;;41.60;24.33;;;;;;;5.97;100.00;102237.84;5210231;28;20026;-77
2022/01/27 12:01:02;;;;;;;33.80;23.35;;;;;;;5.98;100.00;102242.16;5210415;28;20112;-76
2022/01/27 12:03:34;;;;;;;33.55;23.13;;;;;;;5.98;100.00;102236.97;5232752;28;20391;-77
2022/01/27 12:06:21;;;;;;;35.27;21.10;;;;;;;6.07;100.00;102242.91;5232126;28;20076;-77
2022/01/27 12:09:21;;;;;;;31.73;21.47;;;;;;;6.09;100.00;102231.59;5228570;28;20034;-78
2022/01/27 12:11:55;;;;;;;35.67;21.83;;;;;;;6.12;100.00;102228.09;5220350;28;20068;-77
2022/01/27 12:14:32;;;;;;;33.40;19.52;;;;;;;6.20;100.00;102241.78;5199183;28;20462;-77
2022/01/27 12:17:06;;;;;;;25.50;20.60;;;;;;;6.19;100.00;102237.50;5213575;28;20075;-77
2022/01/27 12:19:50;;;;;;;22.70;16.92;;;;;;;6.17;100.00;102223.66;5225475;28;20033;-73
2022/01/27 12:22:51;;;;;;;31.20;17.75;;;;;;;6.23;100.00;102243.50;5229324;28;20036;-74
2022/01/27 12:25:22;;;;;;;28.63;17.77;;;;;;;6.16;100.00;102214.16;5230010;28;20071;-73
2022/01/27 12:27:57;;;;;;;36.60;18.00;;;;;;;6.25;100.00;102228.72;5230224;28;20030;-74
2022/01/27 12:30:28;;;;;;;29.60;16.80;;;;;;;6.28;100.00;102226.88;5228263;28;20384;-81
2022/01/27 12:32:59;;;;;;;26.30;16.33;;;;;;;6.27;100.00;102217.38;5230146;28;20029;-82